• Join FlightAware (Why Join?)
  • Login
  • US Flag 
09:18PM EDT


 

Airport Tracker/Info


-or-


 

Live Flight TrackerFlight Track Log ✈ POE411 ✈ 03-May-2013 ✈ CYTZ - CYUL

Flight Track Log - Related Links

Times and Time Zones

All times are in EDT time to prevent confusion due to time zone crossing. See the POE411 flight status page for this flight to view local times or setup timezone preferences in your user account.

Time Position Orientation Groundspeed Altitude Reporting Facility
EDT Latitude Longitude Course Direction KTS MPH feet Rate Location/Type
11:39AM 43.6333 -79.3500 55° Northeast 120 138 1,400  Level Toronto Center
11:40AM 43.6500 -79.2833 71° East 170 196 3,400 1,860 Climbing Toronto Center
11:41AM 43.6833 -79.2167 55° Northeast 230 265 5,200 1,920 Climbing Toronto Center
11:42AM 43.7167 -79.1333 61° Northeast 250 288 7,300 2,160 Climbing Toronto Center
11:43AM 43.8616 -78.7595 68° East  Level FlightAware Approximate
11:43AM 43.7500 -79.0333 65° Northeast 260 299 9,600  Level Toronto Center
11:44AM 43.8986 -78.6528 55° Northeast  Level FlightAware Approximate
11:44AM 43.7833 -78.9333 65° Northeast 260 299 11,800  Level Toronto Center
11:45AM 43.8167 -78.8667 55° Northeast 250 288 13,400 1,560 Climbing Toronto Center
11:46AM 43.8500 -78.7833 61° Northeast 250 288 15,000 1,560 Climbing Toronto Center
11:47AM 43.8833 -78.6833 65° Northeast 260 299 16,600 1,380 Climbing Toronto Center
11:48AM 43.9167 -78.5833 65° Northeast 270 311 17,800 1,380 Climbing Toronto Center
11:49AM 43.9500 -78.5000 61° Northeast 280 322 19,400 1,260 Climbing Toronto Center
11:50AM 43.9667 -78.4000 77° East 290 334 20,400 1,080 Climbing Toronto Center
11:51AM 44.0000 -78.2833 68° East 290 334 21,600 1,080 Climbing Toronto Center
11:52AM 44.0333 -78.2000 61° Northeast 300 345 22,600 660 Climbing Toronto Center
11:53AM 44.0667 -78.0833 68° East 310 357 23,000 180 Climbing Toronto Center
11:54AM 44.1167 -77.9667 59° Northeast 330 380 23,000  Level Toronto Center
11:55AM 44.1500 -77.8500 68° East 350 403 23,000  Level Toronto Center
11:56AM 44.2000 -77.7000 65° Northeast 360 414 23,000  Level Toronto Center
11:57AM 44.2500 -77.5833 59° Northeast 360 414 23,000  Level Toronto Center
11:58AM 44.2833 -77.4500 71° East 360 414 23,000  Level Toronto Center
11:59AM 44.3167 -77.3333 68° East 360 414 23,000  Level Toronto Center
12:00PM 44.3500 -77.1833 73° East 360 414 23,000  Level Toronto Center
12:01PM 44.4000 -77.0667 59° Northeast 360 414 23,000  Level Toronto Center
12:02PM 44.4333 -76.9167 73° East 360 414 23,000  Level Toronto Center
12:03PM 44.4667 -76.7833 71° East 360 414 23,000  Level Toronto Center
12:04PM 44.5000 -76.6667 68° East 360 414 23,000  Level Toronto Center
12:05PM 44.5333 -76.5167 73° East 360 414 23,000  Level Toronto Center
12:06PM 44.5667 -76.4000 68° East 370 426 23,000  Level Toronto Center
12:07PM 44.6000 -76.2667 71° East 360 414 23,000  Level Toronto Center
12:08PM 44.6500 -76.1333 62° Northeast 360 414 23,000  Level Toronto Center
12:09PM 44.6667 -76.0000 80° East 360 414 23,000  Level Toronto Center
12:10PM 44.7167 -75.8833 59° Northeast 360 414 23,000  Level Toronto Center
12:11PM 44.7500 -75.7333 73° East 360 414 23,000  Level Toronto Center
12:12PM 44.8000 -75.6167 59° Northeast 360 414 23,000  Level Toronto Center
12:13PM 44.8333 -75.5000 68° East 350 403 23,000 -420 Level Toronto Center
12:14PM 44.8833 -75.3667 62° Northeast 350 403 22,200 -1,320 Descending Toronto Center
12:15PM 44.9167 -75.2333 71° East 360 414 20,400 -1,800 Descending Toronto Center
12:16PM 44.9500 -75.1000 71° East 360 414 18,700 -1,620 Descending Toronto Center
12:17PM 45.0000 -74.9833 59° Northeast 350 403 17,200 -1,620 Descending Toronto Center
12:18PM 45.0500 -74.8667 59° Northeast 350 403 15,500 -1,680 Descending Toronto Center
12:19PM 45.0833 -74.7667 65° Northeast 340 391 13,800 -1,620 Descending Montreal Center
12:20PM 45.1167 -74.6333 70° East 320 368 12,300 -1,500 Descending Montreal Center
12:21PM 45.1500 -74.5500 60° Northeast 290 334 10,800 -1,320 Descending Montreal Center
12:22PM 45.1833 -74.4500 65° Northeast 270 311 9,700 -1,140 Descending Montreal Center
12:23PM 45.2000 -74.3500 77° East 260 299 8,600 -1,140 Descending Montreal Center
12:24PM 45.2333 -74.2500 65° Northeast 250 288 7,500 -1,080 Descending Montreal Center
12:25PM 45.2500 -74.1667 74° East 210 242 6,500 -900 Descending Montreal Center
12:26PM 45.2500 -74.0833 90° East 210 242 5,700 -840 Descending Montreal Center
12:27PM 45.2667 -74.0167 70° East 180 207 4,900 -780 Descending Montreal Center
12:28PM 45.3000 -73.9667 47° Northeast 160 184 4,200 -840 Descending Montreal Center
12:29PM 45.3333 -73.9167 47° Northeast 170 196 3,300 -900 Descending Montreal Center
12:30PM 45.3667 -73.8667 46° Northeast 140 161 2,500 -780 Descending Montreal Center
12:31PM 45.3833 -73.8500 35° Northeast 130 150 1,800 -720 Descending Montreal Center
12:32PM 45.4167 -73.8000 46° Northeast 130 150 1,100 -660 Descending Montreal Center
12:33PM 45.4333 -73.7667 55° Northeast 120 138 500 -540 Descending Montreal Center
12:34PM 45.4500 -73.7500 35° Northeast 70 81 100 -420 Descending Montreal Center